sensor_id;sensor_type;location;lat;lon;timestamp;P1;durP1;ratioP1;P2;durP2;ratioP2
72437;SDS011;60444;43.534;-5.674;2024-01-15T00:01:29;29.13;;;16.67;;
72437;SDS011;60444;43.534;-5.674;2024-01-15T00:03:55;28.10;;;17.10;;
72437;SDS011;60444;43.534;-5.674;2024-01-15T00:06:20;28.70;;;16.42;;
72437;SDS011;60444;43.534;-5.674;2024-01-15T00:08:46;25.93;;;16.77;;
72437;SDS011;60444;43.534;-5.674;2024-01-15T00:11:12;29.58;;;17.42;;
72437;SDS011;60444;43.534;-5.674;2024-01-15T00:13:37;28.57;;;17.07;;
72437;SDS011;60444;43.534;-5.674;2024-01-15T00:16:03;28.77;;;17.60;;
72437;SDS011;60444;43.534;-5.674;2024-01-15T00:18:29;27.45;;;16.60;;
72437;SDS011;60444;43.534;-5.674;2024-01-15T00:20:55;28.13;;;17.45;;
72437;SDS011;60444;43.534;-5.674;2024-01-15T00:23:22;26.17;;;17.03;;
72437;SDS011;60444;43.534;-5.674;2024-01-15T00:25:47;26.02;;;16.55;;
72437;SDS011;60444;43.534;-5.674;2024-01-15T00:28:13;24.35;;;16.98;;
72437;SDS011;60444;43.534;-5.674;2024-01-15T00:30:38;25.90;;;16.40;;
72437;SDS011;60444;43.534;-5.674;2024-01-15T00:33:04;28.93;;;17.20;;
72437;SDS011;60444;43.534;-5.674;2024-01-15T00:35:29;27.47;;;16.20;;
72437;SDS011;60444;43.534;-5.674;2024-01-15T00:37:55;27.80;;;17.63;;
72437;SDS011;60444;43.534;-5.674;2024-01-15T00:40:21;26.90;;;16.37;;
72437;SDS011;60444;43.534;-5.674;2024-01-15T00:42:46;27.65;;;15.77;;
72437;SDS011;60444;43.534;-5.674;2024-01-15T00:45:12;30.47;;;17.00;;
72437;SDS011;60444;43.534;-5.674;2024-01-15T00:47:37;26.93;;;16.60;;
72437;SDS011;60444;43.534;-5.674;2024-01-15T00:50:03;26.33;;;15.98;;
72437;SDS011;60444;43.534;-5.674;2024-01-15T00:52:28;25.13;;;15.57;;
72437;SDS011;60444;43.534;-5.674;2024-01-15T00:54:54;25.73;;;15.90;;
72437;SDS011;60444;43.534;-5.674;2024-01-15T00:57:19;24.45;;;15.55;;
72437;SDS011;60444;43.534;-5.674;2024-01-15T00:59:45;22.93;;;15.20;;
72437;SDS011;60444;43.534;-5.674;2024-01-15T01:02:10;23.53;;;15.23;;
72437;SDS011;60444;43.534;-5.674;2024-01-15T01:04:36;25.92;;;14.85;;
72437;SDS011;60444;43.534;-5.674;2024-01-15T01:07:01;25.67;;;14.87;;
72437;SDS011;60444;43.534;-5.674;2024-01-15T01:09:27;29.73;;;14.97;;
72437;SDS011;60444;43.534;-5.674;2024-01-15T01:11:55;22.20;;;13.65;;
72437;SDS011;60444;43.534;-5.674;2024-01-15T01:14:21;23.30;;;14.70;;
72437;SDS011;60444;43.534;-5.674;2024-01-15T01:16:47;18.90;;;10.38;;
72437;SDS011;60444;43.534;-5.674;2024-01-15T01:19:12;20.60;;;10.33;;
72437;SDS011;60444;43.534;-5.674;2024-01-15T01:21:38;21.87;;;9.33;;
72437;SDS011;60444;43.534;-5.674;2024-01-15T01:24:03;22.40;;;11.00;;
72437;SDS011;60444;43.534;-5.674;2024-01-15T01:26:29;16.70;;;8.57;;
72437;SDS011;60444;43.534;-5.674;2024-01-15T01:28:55;19.52;;;9.57;;
72437;SDS011;60444;43.534;-5.674;2024-01-15T01:31:21;20.47;;;9.63;;
72437;SDS011;60444;43.534;-5.674;2024-01-15T01:33:46;18.90;;;9.30;;
72437;SDS011;60444;43.534;-5.674;2024-01-15T01:36:12;17.20;;;8.80;;
72437;SDS011;60444;43.534;-5.674;2024-01-15T01:38:37;16.87;;;10.27;;
72437;SDS011;60444;43.534;-5.674;2024-01-15T01:41:05;17.27;;;9.15;;
72437;SDS011;60444;43.534;-5.674;2024-01-15T01:43:30;16.17;;;9.53;;
72437;SDS011;60444;43.534;-5.674;2024-01-15T01:45:56;17.93;;;9.33;;
72437;SDS011;60444;43.534;-5.674;2024-01-15T01:48:25;16.48;;;8.85;;
72437;SDS011;60444;43.534;-5.674;2024-01-15T01:50:55;17.60;;;9.45;;
72437;SDS011;60444;43.534;-5.674;2024-01-15T01:53:24;20.10;;;11.32;;
72437;SDS011;60444;43.534;-5.674;2024-01-15T01:55:51;20.48;;;12.57;;
72437;SDS011;60444;43.534;-5.674;2024-01-15T01:58:18;16.27;;;9.17;;
72437;SDS011;60444;43.534;-5.674;2024-01-15T02:00:45;14.57;;;8.45;;
72437;SDS011;60444;43.534;-5.674;2024-01-15T02:03:12;12.98;;;7.35;;
72437;SDS011;60444;43.534;-5.674;2024-01-15T02:05:37;17.73;;;7.83;;
72437;SDS011;60444;43.534;-5.674;2024-01-15T02:08:05;13.40;;;6.65;;
72437;SDS011;60444;43.534;-5.674;2024-01-15T02:10:30;12.88;;;6.20;;
72437;SDS011;60444;43.534;-5.674;2024-01-15T02:12:56;12.90;;;6.30;;
72437;SDS011;60444;43.534;-5.674;2024-01-15T02:15:22;9.70;;;5.43;;
72437;SDS011;60444;43.534;-5.674;2024-01-15T02:18:00;11.43;;;5.30;;
72437;SDS011;60444;43.534;-5.674;2024-01-15T02:20:29;10.27;;;5.65;;
72437;SDS011;60444;43.534;-5.674;2024-01-15T02:23:11;9.40;;;4.07;;
72437;SDS011;60444;43.534;-5.674;2024-01-15T02:25:38;10.50;;;4.70;;
72437;SDS011;60444;43.534;-5.674;2024-01-15T02:28:05;9.53;;;4.10;;
72437;SDS011;60444;43.534;-5.674;2024-01-15T02:30:34;10.48;;;4.20;;
72437;SDS011;60444;43.534;-5.674;2024-01-15T02:33:03;10.85;;;4.65;;
72437;SDS011;60444;43.534;-5.674;2024-01-15T02:35:28;9.50;;;4.40;;
72437;SDS011;60444;43.534;-5.674;2024-01-15T02:37:54;9.32;;;4.07;;
72437;SDS011;60444;43.534;-5.674;2024-01-15T02:40:19;9.97;;;4.53;;
72437;SDS011;60444;43.534;-5.674;2024-01-15T02:42:49;10.00;;;4.10;;
72437;SDS011;60444;43.534;-5.674;2024-01-15T02:45:14;7.15;;;3.30;;
72437;SDS011;60444;43.534;-5.674;2024-01-15T02:47:40;7.63;;;3.47;;
72437;SDS011;60444;43.534;-5.674;2024-01-15T02:50:05;9.55;;;3.33;;
72437;SDS011;60444;43.534;-5.674;2024-01-15T02:52:31;8.63;;;3.27;;
72437;SDS011;60444;43.534;-5.674;2024-01-15T02:54:57;8.40;;;3.53;;
72437;SDS011;60444;43.534;-5.674;2024-01-15T02:57:22;9.73;;;3.70;;
72437;SDS011;60444;43.534;-5.674;2024-01-15T02:59:48;8.43;;;3.87;;
72437;SDS011;60444;43.534;-5.674;2024-01-15T03:02:13;10.07;;;4.35;;
72437;SDS011;60444;43.534;-5.674;2024-01-15T03:04:43;9.33;;;3.87;;
72437;SDS011;60444;43.534;-5.674;2024-01-15T03:07:09;9.15;;;3.92;;
72437;SDS011;60444;43.534;-5.674;2024-01-15T03:09:34;11.27;;;4.70;;
72437;SDS011;60444;43.534;-5.674;2024-01-15T03:11:59;9.87;;;5.00;;
72437;SDS011;60444;43.534;-5.674;2024-01-15T03:14:25;10.77;;;5.47;;
72437;SDS011;60444;43.534;-5.674;2024-01-15T03:16:51;12.20;;;5.27;;
72437;SDS011;60444;43.534;-5.674;2024-01-15T03:19:17;12.40;;;5.75;;
72437;SDS011;60444;43.534;-5.674;2024-01-15T03:21:42;12.23;;;6.27;;
72437;SDS011;60444;43.534;-5.674;2024-01-15T03:24:08;13.73;;;5.93;;
72437;SDS011;60444;43.534;-5.674;2024-01-15T03:26:33;15.77;;;6.47;;
72437;SDS011;60444;43.534;-5.674;2024-01-15T03:28:59;14.43;;;7.57;;
72437;SDS011;60444;43.534;-5.674;2024-01-15T03:31:24;17.50;;;8.05;;
72437;SDS011;60444;43.534;-5.674;2024-01-15T03:33:50;18.90;;;8.87;;
72437;SDS011;60444;43.534;-5.674;2024-01-15T03:36:15;18.60;;;9.70;;
72437;SDS011;60444;43.534;-5.674;2024-01-15T03:38:43;20.98;;;11.13;;
72437;SDS011;60444;43.534;-5.674;2024-01-15T03:41:09;19.77;;;10.97;;
72437;SDS011;60444;43.534;-5.674;2024-01-15T03:43:35;20.85;;;11.25;;
72437;SDS011;60444;43.534;-5.674;2024-01-15T03:46:00;25.23;;;11.73;;
72437;SDS011;60444;43.534;-5.674;2024-01-15T03:48:27;20.80;;;9.52;;
72437;SDS011;60444;43.534;-5.674;2024-01-15T03:50:52;19.00;;;11.13;;
72437;SDS011;60444;43.534;-5.674;2024-01-15T03:53:18;16.70;;;8.57;;
72437;SDS011;60444;43.534;-5.674;2024-01-15T03:55:43;15.87;;;8.23;;
72437;SDS011;60444;43.534;-5.674;2024-01-15T03:58:09;13.20;;;6.47;;
72437;SDS011;60444;43.534;-5.674;2024-01-15T04:00:35;14.32;;;6.68;;
72437;SDS011;60444;43.534;-5.674;2024-01-15T04:03:00;10.77;;;6.20;;
72437;SDS011;60444;43.534;-5.674;2024-01-15T04:05:26;12.53;;;5.90;;
72437;SDS011;60444;43.534;-5.674;2024-01-15T04:07:51;13.60;;;6.10;;
72437;SDS011;60444;43.534;-5.674;2024-01-15T04:10:17;12.30;;;6.17;;
72437;SDS011;60444;43.534;-5.674;2024-01-15T04:12:42;14.07;;;6.37;;
72437;SDS011;60444;43.534;-5.674;2024-01-15T04:15:08;9.80;;;5.38;;
72437;SDS011;60444;43.534;-5.674;2024-01-15T04:17:33;10.50;;;4.77;;
72437;SDS011;60444;43.534;-5.674;2024-01-15T04:19:59;13.07;;;6.63;;
72437;SDS011;60444;43.534;-5.674;2024-01-15T04:22:25;11.38;;;5.38;;
72437;SDS011;60444;43.534;-5.674;2024-01-15T04:24:51;11.60;;;5.50;;
72437;SDS011;60444;43.534;-5.674;2024-01-15T04:27:17;14.00;;;5.20;;
72437;SDS011;60444;43.534;-5.674;2024-01-15T04:29:42;13.40;;;5.60;;
72437;SDS011;60444;43.534;-5.674;2024-01-15T04:32:09;13.50;;;6.00;;
72437;SDS011;60444;43.534;-5.674;2024-01-15T04:34:35;12.38;;;5.90;;
72437;SDS011;60444;43.534;-5.674;2024-01-15T04:37:00;12.53;;;5.63;;
72437;SDS011;60444;43.534;-5.674;2024-01-15T04:39:26;11.47;;;5.20;;
72437;SDS011;60444;43.534;-5.674;2024-01-15T04:41:51;10.30;;;5.30;;
72437;SDS011;60444;43.534;-5.674;2024-01-15T04:44:17;10.23;;;4.93;;
72437;SDS011;60444;43.534;-5.674;2024-01-15T04:46:43;11.32;;;4.88;;
72437;SDS011;60444;43.534;-5.674;2024-01-15T04:49:09;8.93;;;4.37;;
72437;SDS011;60444;43.534;-5.674;2024-01-15T04:51:34;10.40;;;5.05;;
72437;SDS011;60444;43.534;-5.674;2024-01-15T04:54:01;10.17;;;4.13;;
72437;SDS011;60444;43.534;-5.674;2024-01-15T04:56:26;9.18;;;4.53;;
72437;SDS011;60444;43.534;-5.674;2024-01-15T04:58:52;9.13;;;4.23;;
72437;SDS011;60444;43.534;-5.674;2024-01-15T05:01:17;10.90;;;4.37;;
72437;SDS011;60444;43.534;-5.674;2024-01-15T05:03:43;11.23;;;4.68;;
72437;SDS011;60444;43.534;-5.674;2024-01-15T05:06:08;7.47;;;3.30;;
72437;SDS011;60444;43.534;-5.674;2024-01-15T05:08:34;8.70;;;4.00;;
72437;SDS011;60444;43.534;-5.674;2024-01-15T05:10:59;10.47;;;3.97;;
72437;SDS011;60444;43.534;-5.674;2024-01-15T05:13:28;11.27;;;3.78;;
72437;SDS011;60444;43.534;-5.674;2024-01-15T05:15:53;12.77;;;3.80;;
72437;SDS011;60444;43.534;-5.674;2024-01-15T05:18:19;9.87;;;4.37;;
72437;SDS011;60444;43.534;-5.674;2024-01-15T05:20:44;9.55;;;3.40;;
72437;SDS011;60444;43.534;-5.674;2024-01-15T05:23:10;7.70;;;3.40;;
72437;SDS011;60444;43.534;-5.674;2024-01-15T05:25:35;8.83;;;3.33;;
72437;SDS011;60444;43.534;-5.674;2024-01-15T05:28:01;8.98;;;3.83;;
72437;SDS011;60444;43.534;-5.674;2024-01-15T05:30:27;8.10;;;3.57;;
72437;SDS011;60444;43.534;-5.674;2024-01-15T05:32:53;8.20;;;3.33;;
72437;SDS011;60444;43.534;-5.674;2024-01-15T05:35:19;11.15;;;3.63;;
72437;SDS011;60444;43.534;-5.674;2024-01-15T05:37:45;9.60;;;3.40;;
72437;SDS011;60444;43.534;-5.674;2024-01-15T05:40:11;9.20;;;3.30;;
72437;SDS011;60444;43.534;-5.674;2024-01-15T05:42:38;11.27;;;2.92;;
72437;SDS011;60444;43.534;-5.674;2024-01-15T05:45:04;8.55;;;2.88;;
72437;SDS011;60444;43.534;-5.674;2024-01-15T05:47:31;8.10;;;2.90;;
72437;SDS011;60444;43.534;-5.674;2024-01-15T05:49:56;7.38;;;2.53;;
72437;SDS011;60444;43.534;-5.674;2024-01-15T05:52:23;7.90;;;2.92;;
72437;SDS011;60444;43.534;-5.674;2024-01-15T05:54:49;7.00;;;2.40;;
72437;SDS011;60444;43.534;-5.674;2024-01-15T05:57:15;11.57;;;3.08;;
72437;SDS011;60444;43.534;-5.674;2024-01-15T05:59:41;7.18;;;2.88;;
72437;SDS011;60444;43.534;-5.674;2024-01-15T06:02:06;7.13;;;2.57;;
72437;SDS011;60444;43.534;-5.674;2024-01-15T06:04:32;7.73;;;2.80;;
72437;SDS011;60444;43.534;-5.674;2024-01-15T06:06:57;7.25;;;2.65;;
72437;SDS011;60444;43.534;-5.674;2024-01-15T06:09:23;8.13;;;2.97;;
72437;SDS011;60444;43.534;-5.674;2024-01-15T06:11:48;8.10;;;2.85;;
72437;SDS011;60444;43.534;-5.674;2024-01-15T06:14:14;10.00;;;2.70;;
72437;SDS011;60444;43.534;-5.674;2024-01-15T06:16:39;6.67;;;2.63;;
72437;SDS011;60444;43.534;-5.674;2024-01-15T06:19:05;11.67;;;3.07;;
72437;SDS011;60444;43.534;-5.674;2024-01-15T06:21:30;7.85;;;2.78;;
72437;SDS011;60444;43.534;-5.674;2024-01-15T06:23:56;7.03;;;2.43;;
72437;SDS011;60444;43.534;-5.674;2024-01-15T06:26:22;8.60;;;2.80;;
72437;SDS011;60444;43.534;-5.674;2024-01-15T06:28:48;9.90;;;2.73;;
72437;SDS011;60444;43.534;-5.674;2024-01-15T06:31:13;7.93;;;2.67;;
72437;SDS011;60444;43.534;-5.674;2024-01-15T06:33:39;7.30;;;2.70;;
72437;SDS011;60444;43.534;-5.674;2024-01-15T06:36:05;7.75;;;2.50;;
72437;SDS011;60444;43.534;-5.674;2024-01-15T06:38:31;8.45;;;2.33;;
72437;SDS011;60444;43.534;-5.674;2024-01-15T06:40:56;9.53;;;2.87;;
72437;SDS011;60444;43.534;-5.674;2024-01-15T06:43:22;8.97;;;2.90;;
72437;SDS011;60444;43.534;-5.674;2024-01-15T06:45:47;8.38;;;2.65;;
72437;SDS011;60444;43.534;-5.674;2024-01-15T06:48:13;7.33;;;1.90;;
72437;SDS011;60444;43.534;-5.674;2024-01-15T06:50:41;12.35;;;6.90;;
72437;SDS011;60444;43.534;-5.674;2024-01-15T06:53:07;6.32;;;1.95;;
72437;SDS011;60444;43.534;-5.674;2024-01-15T06:55:33;7.07;;;2.30;;
72437;SDS011;60444;43.534;-5.674;2024-01-15T06:57:58;7.13;;;1.80;;
72437;SDS011;60444;43.534;-5.674;2024-01-15T07:00:24;6.33;;;1.90;;
72437;SDS011;60444;43.534;-5.674;2024-01-15T07:02:49;8.30;;;2.20;;
72437;SDS011;60444;43.534;-5.674;2024-01-15T07:05:15;9.77;;;2.50;;
72437;SDS011;60444;43.534;-5.674;2024-01-15T07:07:40;8.57;;;2.53;;
72437;SDS011;60444;43.534;-5.674;2024-01-15T07:10:06;9.83;;;2.90;;
72437;SDS011;60444;43.534;-5.674;2024-01-15T07:12:32;7.50;;;2.47;;
72437;SDS011;60444;43.534;-5.674;2024-01-15T07:14:58;9.45;;;2.53;;
72437;SDS011;60444;43.534;-5.674;2024-01-15T07:17:24;9.30;;;3.47;;
72437;SDS011;60444;43.534;-5.674;2024-01-15T07:19:49;6.97;;;2.33;;
72437;SDS011;60444;43.534;-5.674;2024-01-15T07:22:15;10.20;;;2.85;;
72437;SDS011;60444;43.534;-5.674;2024-01-15T07:24:42;9.37;;;2.43;;
72437;SDS011;60444;43.534;-5.674;2024-01-15T07:27:08;8.18;;;2.30;;
72437;SDS011;60444;43.534;-5.674;2024-01-15T07:29:34;8.98;;;2.85;;
72437;SDS011;60444;43.534;-5.674;2024-01-15T07:32:02;9.25;;;3.25;;
72437;SDS011;60444;43.534;-5.674;2024-01-15T07:34:28;9.27;;;3.15;;
72437;SDS011;60444;43.534;-5.674;2024-01-15T07:36:54;11.57;;;3.57;;
72437;SDS011;60444;43.534;-5.674;2024-01-15T07:39:20;9.20;;;3.00;;
72437;SDS011;60444;43.534;-5.674;2024-01-15T07:41:45;10.98;;;2.80;;
72437;SDS011;60444;43.534;-5.674;2024-01-15T07:44:11;7.83;;;2.80;;
72437;SDS011;60444;43.534;-5.674;2024-01-15T07:46:36;9.07;;;2.70;;
72437;SDS011;60444;43.534;-5.674;2024-01-15T07:49:02;8.73;;;2.40;;
72437;SDS011;60444;43.534;-5.674;2024-01-15T07:51:28;7.95;;;2.00;;
72437;SDS011;60444;43.534;-5.674;2024-01-15T07:53:54;8.17;;;2.50;;
72437;SDS011;60444;43.534;-5.674;2024-01-15T07:56:22;9.55;;;2.83;;
72437;SDS011;60444;43.534;-5.674;2024-01-15T07:58:48;8.70;;;2.63;;
72437;SDS011;60444;43.534;-5.674;2024-01-15T08:01:13;7.10;;;2.63;;
72437;SDS011;60444;43.534;-5.674;2024-01-15T08:03:39;8.00;;;2.37;;
72437;SDS011;60444;43.534;-5.674;2024-01-15T08:06:05;7.27;;;2.10;;
72437;SDS011;60444;43.534;-5.674;2024-01-15T08:08:31;10.98;;;2.20;;
72437;SDS011;60444;43.534;-5.674;2024-01-15T08:10:56;7.17;;;2.27;;
72437;SDS011;60444;43.534;-5.674;2024-01-15T08:13:22;9.23;;;2.17;;
72437;SDS011;60444;43.534;-5.674;2024-01-15T08:15:47;6.03;;;1.87;;
72437;SDS011;60444;43.534;-5.674;2024-01-15T08:18:13;9.57;;;3.10;;
72437;SDS011;60444;43.534;-5.674;2024-01-15T08:20:39;9.43;;;2.80;;
72437;SDS011;60444;43.534;-5.674;2024-01-15T08:23:04;11.67;;;3.30;;
72437;SDS011;60444;43.534;-5.674;2024-01-15T08:25:30;8.82;;;2.67;;
72437;SDS011;60444;43.534;-5.674;2024-01-15T08:27:56;8.20;;;2.77;;
72437;SDS011;60444;43.534;-5.674;2024-01-15T08:30:22;9.68;;;3.40;;
72437;SDS011;60444;43.534;-5.674;2024-01-15T08:32:53;10.75;;;3.40;;
72437;SDS011;60444;43.534;-5.674;2024-01-15T08:35:18;15.23;;;4.77;;
72437;SDS011;60444;43.534;-5.674;2024-01-15T08:37:48;11.52;;;4.63;;
72437;SDS011;60444;43.534;-5.674;2024-01-15T08:40:15;16.95;;;4.75;;
72437;SDS011;60444;43.534;-5.674;2024-01-15T08:42:41;13.80;;;4.13;;
72437;SDS011;60444;43.534;-5.674;2024-01-15T08:45:06;9.70;;;3.40;;
72437;SDS011;60444;43.534;-5.674;2024-01-15T08:47:33;12.50;;;3.80;;
72437;SDS011;60444;43.534;-5.674;2024-01-15T08:49:59;11.07;;;3.27;;
72437;SDS011;60444;43.534;-5.674;2024-01-15T08:52:25;9.10;;;2.60;;
72437;SDS011;60444;43.534;-5.674;2024-01-15T08:54:51;7.22;;;2.38;;
72437;SDS011;60444;43.534;-5.674;2024-01-15T08:57:16;6.97;;;2.50;;
72437;SDS011;60444;43.534;-5.674;2024-01-15T08:59:42;14.50;;;12.17;;
72437;SDS011;60444;43.534;-5.674;2024-01-15T09:02:07;8.82;;;2.63;;
72437;SDS011;60444;43.534;-5.674;2024-01-15T09:04:33;8.40;;;2.30;;
72437;SDS011;60444;43.534;-5.674;2024-01-15T09:06:58;6.90;;;2.13;;
72437;SDS011;60444;43.534;-5.674;2024-01-15T09:09:24;8.18;;;2.70;;
72437;SDS011;60444;43.534;-5.674;2024-01-15T09:11:50;8.37;;;3.00;;
72437;SDS011;60444;43.534;-5.674;2024-01-15T09:14:16;8.10;;;2.80;;
72437;SDS011;60444;43.534;-5.674;2024-01-15T09:16:41;10.90;;;4.87;;
72437;SDS011;60444;43.534;-5.674;2024-01-15T09:19:07;9.65;;;3.78;;
72437;SDS011;60444;43.534;-5.674;2024-01-15T09:21:33;8.70;;;3.60;;
72437;SDS011;60444;43.534;-5.674;2024-01-15T09:23:58;8.63;;;3.10;;
72437;SDS011;60444;43.534;-5.674;2024-01-15T09:26:24;11.60;;;4.07;;
72437;SDS011;60444;43.534;-5.674;2024-01-15T09:28:49;10.40;;;3.83;;
72437;SDS011;60444;43.534;-5.674;2024-01-15T09:31:15;9.40;;;4.03;;
72437;SDS011;60444;43.534;-5.674;2024-01-15T09:33:42;9.55;;;4.22;;
72437;SDS011;60444;43.534;-5.674;2024-01-15T09:36:08;7.10;;;2.13;;
72437;SDS011;60444;43.534;-5.674;2024-01-15T09:38:33;7.33;;;2.23;;
72437;SDS011;60444;43.534;-5.674;2024-01-15T09:40:59;10.60;;;2.70;;
72437;SDS011;60444;43.534;-5.674;2024-01-15T09:43:25;9.73;;;3.87;;
72437;SDS011;60444;43.534;-5.674;2024-01-15T09:45:51;12.98;;;4.20;;
72437;SDS011;60444;43.534;-5.674;2024-01-15T09:48:18;8.00;;;3.10;;
72437;SDS011;60444;43.534;-5.674;2024-01-15T09:50:44;9.37;;;3.80;;
72437;SDS011;60444;43.534;-5.674;2024-01-15T09:53:09;8.05;;;3.30;;
72437;SDS011;60444;43.534;-5.674;2024-01-15T09:55:37;10.53;;;3.40;;
72437;SDS011;60444;43.534;-5.674;2024-01-15T09:58:03;8.25;;;3.15;;
72437;SDS011;60444;43.534;-5.674;2024-01-15T10:00:29;12.13;;;5.63;;
72437;SDS011;60444;43.534;-5.674;2024-01-15T10:02:56;11.70;;;4.95;;
72437;SDS011;60444;43.534;-5.674;2024-01-15T10:05:22;11.60;;;3.78;;
72437;SDS011;60444;43.534;-5.674;2024-01-15T10:07:47;9.77;;;4.00;;
72437;SDS011;60444;43.534;-5.674;2024-01-15T10:10:15;12.85;;;4.05;;
72437;SDS011;60444;43.534;-5.674;2024-01-15T10:12:40;13.87;;;4.80;;
72437;SDS011;60444;43.534;-5.674;2024-01-15T10:15:10;12.63;;;4.80;;
72437;SDS011;60444;43.534;-5.674;2024-01-15T10:17:37;13.27;;;4.47;;
72437;SDS011;60444;43.534;-5.674;2024-01-15T10:20:07;12.02;;;4.60;;
72437;SDS011;60444;43.534;-5.674;2024-01-15T10:22:38;11.55;;;4.80;;
72437;SDS011;60444;43.534;-5.674;2024-01-15T10:25:05;11.47;;;5.63;;
72437;SDS011;60444;43.534;-5.674;2024-01-15T10:27:31;14.85;;;7.07;;
72437;SDS011;60444;43.534;-5.674;2024-01-15T10:30:00;14.10;;;7.10;;
72437;SDS011;60444;43.534;-5.674;2024-01-15T10:32:27;19.33;;;7.53;;
72437;SDS011;60444;43.534;-5.674;2024-01-15T10:34:52;16.43;;;7.57;;
72437;SDS011;60444;43.534;-5.674;2024-01-15T10:37:19;16.52;;;7.50;;
72437;SDS011;60444;43.534;-5.674;2024-01-15T10:39:48;18.60;;;8.95;;
72437;SDS011;60444;43.534;-5.674;2024-01-15T10:42:13;21.77;;;10.13;;
72437;SDS011;60444;43.534;-5.674;2024-01-15T10:44:43;27.40;;;14.23;;
72437;SDS011;60444;43.534;-5.674;2024-01-15T10:47:09;27.52;;;13.25;;
72437;SDS011;60444;43.534;-5.674;2024-01-15T10:49:36;32.45;;;16.25;;
72437;SDS011;60444;43.534;-5.674;2024-01-15T10:52:02;28.33;;;14.90;;
72437;SDS011;60444;43.534;-5.674;2024-01-15T10:54:29;31.23;;;14.57;;
72437;SDS011;60444;43.534;-5.674;2024-01-15T10:56:55;27.58;;;14.43;;
72437;SDS011;60444;43.534;-5.674;2024-01-15T10:59:21;31.73;;;15.35;;
72437;SDS011;60444;43.534;-5.674;2024-01-15T11:01:51;25.75;;;14.52;;
72437;SDS011;60444;43.534;-5.674;2024-01-15T11:04:21;27.23;;;15.80;;
72437;SDS011;60444;43.534;-5.674;2024-01-15T11:06:49;29.87;;;16.23;;
72437;SDS011;60444;43.534;-5.674;2024-01-15T11:09:18;23.15;;;11.55;;
72437;SDS011;60444;43.534;-5.674;2024-01-15T11:11:44;16.77;;;9.63;;
72437;SDS011;60444;43.534;-5.674;2024-01-15T11:17:19;13.90;;;6.15;;
72437;SDS011;60444;43.534;-5.674;2024-01-15T11:19:47;11.30;;;5.83;;
72437;SDS011;60444;43.534;-5.674;2024-01-15T11:24:56;13.65;;;6.90;;
72437;SDS011;60444;43.534;-5.674;2024-01-15T11:30:12;11.98;;;5.80;;
72437;SDS011;60444;43.534;-5.674;2024-01-15T11:32:38;9.83;;;5.30;;
72437;SDS011;60444;43.534;-5.674;2024-01-15T11:35:08;11.90;;;6.22;;
72437;SDS011;60444;43.534;-5.674;2024-01-15T11:40:23;9.82;;;4.00;;
72437;SDS011;60444;43.534;-5.674;2024-01-15T11:43:03;8.88;;;3.97;;
72437;SDS011;60444;43.534;-5.674;2024-01-15T11:45:29;8.90;;;3.67;;
72437;SDS011;60444;43.534;-5.674;2024-01-15T11:50:45;9.32;;;3.25;;
72437;SDS011;60444;43.534;-5.674;2024-01-15T11:53:33;9.02;;;3.80;;
72437;SDS011;60444;43.534;-5.674;2024-01-15T11:56:01;9.95;;;3.78;;
72437;SDS011;60444;43.534;-5.674;2024-01-15T11:58:28;10.30;;;4.27;;
72437;SDS011;60444;43.534;-5.674;2024-01-15T12:00:54;10.13;;;3.63;;
72437;SDS011;60444;43.534;-5.674;2024-01-15T12:03:22;11.20;;;4.32;;
72437;SDS011;60444;43.534;-5.674;2024-01-15T12:05:49;9.57;;;4.65;;
72437;SDS011;60444;43.534;-5.674;2024-01-15T12:08:14;10.23;;;3.77;;
72437;SDS011;60444;43.534;-5.674;2024-01-15T12:10:45;9.70;;;4.10;;
72437;SDS011;60444;43.534;-5.674;2024-01-15T12:13:11;8.73;;;4.10;;
72437;SDS011;60444;43.534;-5.674;2024-01-15T12:15:41;9.63;;;3.88;;
72437;SDS011;60444;43.534;-5.674;2024-01-15T12:18:08;8.85;;;3.42;;
72437;SDS011;60444;43.534;-5.674;2024-01-15T12:20:34;8.48;;;3.72;;
72437;SDS011;60444;43.534;-5.674;2024-01-15T12:23:01;9.90;;;3.90;;
72437;SDS011;60444;43.534;-5.674;2024-01-15T12:25:31;9.83;;;4.03;;
72437;SDS011;60444;43.534;-5.674;2024-01-15T12:27:57;10.32;;;3.63;;
72437;SDS011;60444;43.534;-5.674;2024-01-15T12:30:23;9.40;;;2.95;;
72437;SDS011;60444;43.534;-5.674;2024-01-15T12:32:51;9.27;;;3.13;;
72437;SDS011;60444;43.534;-5.674;2024-01-15T12:35:16;11.00;;;4.37;;
72437;SDS011;60444;43.534;-5.674;2024-01-15T12:37:42;7.73;;;3.23;;
72437;SDS011;60444;43.534;-5.674;2024-01-15T12:40:09;7.55;;;2.70;;
72437;SDS011;60444;43.534;-5.674;2024-01-15T12:42:36;7.45;;;2.83;;
72437;SDS011;60444;43.534;-5.674;2024-01-15T12:45:03;6.90;;;2.85;;
72437;SDS011;60444;43.534;-5.674;2024-01-15T12:47:30;10.93;;;3.80;;
72437;SDS011;60444;43.534;-5.674;2024-01-15T12:49:57;8.50;;;3.67;;
72437;SDS011;60444;43.534;-5.674;2024-01-15T12:52:41;7.55;;;3.00;;
72437;SDS011;60444;43.534;-5.674;2024-01-15T12:55:08;7.88;;;2.47;;
72437;SDS011;60444;43.534;-5.674;2024-01-15T12:57:34;6.43;;;2.50;;
72437;SDS011;60444;43.534;-5.674;2024-01-15T13:00:01;7.68;;;2.75;;
72437;SDS011;60444;43.534;-5.674;2024-01-15T13:02:37;6.03;;;2.33;;
72437;SDS011;60444;43.534;-5.674;2024-01-15T13:05:03;11.57;;;4.45;;
72437;SDS011;60444;43.534;-5.674;2024-01-15T13:07:30;7.97;;;3.00;;
72437;SDS011;60444;43.534;-5.674;2024-01-15T13:09:56;7.40;;;1.63;;
72437;SDS011;60444;43.534;-5.674;2024-01-15T13:12:21;3.77;;;1.30;;
72437;SDS011;60444;43.534;-5.674;2024-01-15T13:14:47;5.95;;;1.40;;
72437;SDS011;60444;43.534;-5.674;2024-01-15T13:17:13;5.47;;;1.70;;
72437;SDS011;60444;43.534;-5.674;2024-01-15T13:19:39;6.72;;;2.42;;
72437;SDS011;60444;43.534;-5.674;2024-01-15T13:22:05;6.50;;;1.67;;
72437;SDS011;60444;43.534;-5.674;2024-01-15T13:24:38;10.50;;;3.57;;
72437;SDS011;60444;43.534;-5.674;2024-01-15T13:27:03;15.40;;;5.63;;
72437;SDS011;60444;43.534;-5.674;2024-01-15T13:29:29;4.95;;;1.50;;
72437;SDS011;60444;43.534;-5.674;2024-01-15T13:31:55;4.83;;;1.43;;
72437;SDS011;60444;43.534;-5.674;2024-01-15T13:34:21;4.65;;;1.35;;
72437;SDS011;60444;43.534;-5.674;2024-01-15T13:36:46;4.87;;;1.10;;
72437;SDS011;60444;43.534;-5.674;2024-01-15T13:39:12;3.22;;;0.77;;
72437;SDS011;60444;43.534;-5.674;2024-01-15T13:41:37;3.43;;;0.83;;
72437;SDS011;60444;43.534;-5.674;2024-01-15T13:44:03;7.13;;;1.97;;
72437;SDS011;60444;43.534;-5.674;2024-01-15T13:46:29;6.82;;;2.72;;
72437;SDS011;60444;43.534;-5.674;2024-01-15T13:48:58;11.15;;;4.07;;
72437;SDS011;60444;43.534;-5.674;2024-01-15T13:51:24;9.50;;;3.77;;
72437;SDS011;60444;43.534;-5.674;2024-01-15T13:53:50;11.13;;;4.47;;
72437;SDS011;60444;43.534;-5.674;2024-01-15T13:56:16;11.50;;;4.25;;
72437;SDS011;60444;43.534;-5.674;2024-01-15T13:58:41;10.93;;;4.20;;
72437;SDS011;60444;43.534;-5.674;2024-01-15T14:01:08;10.97;;;2.87;;
72437;SDS011;60444;43.534;-5.674;2024-01-15T14:03:33;6.88;;;1.75;;
72437;SDS011;60444;43.534;-5.674;2024-01-15T14:05:59;7.60;;;1.80;;
72437;SDS011;60444;43.534;-5.674;2024-01-15T14:08:25;6.38;;;1.10;;
72437;SDS011;60444;43.534;-5.674;2024-01-15T14:10:50;6.17;;;1.90;;
72437;SDS011;60444;43.534;-5.674;2024-01-15T14:13:16;4.05;;;1.38;;
72437;SDS011;60444;43.534;-5.674;2024-01-15T14:15:42;9.10;;;2.10;;
72437;SDS011;60444;43.534;-5.674;2024-01-15T14:18:08;8.30;;;1.80;;
72437;SDS011;60444;43.534;-5.674;2024-01-15T14:20:33;7.67;;;1.70;;
72437;SDS011;60444;43.534;-5.674;2024-01-15T14:22:58;8.43;;;2.40;;
72437;SDS011;60444;43.534;-5.674;2024-01-15T14:25:24;7.68;;;1.52;;
72437;SDS011;60444;43.534;-5.674;2024-01-15T14:27:49;7.50;;;1.90;;
72437;SDS011;60444;43.534;-5.674;2024-01-15T14:30:15;11.50;;;3.40;;
72437;SDS011;60444;43.534;-5.674;2024-01-15T14:32:44;8.95;;;1.70;;
72437;SDS011;60444;43.534;-5.674;2024-01-15T14:35:10;4.72;;;0.98;;